sensor_id;sensor_type;location;lat;lon;timestamp;P1;durP1;ratioP1;P2;durP2;ratioP2
60078;SDS011;45951;45.824;8.824;2023-03-14T00:03:29;11.03;;;9.57;;
60078;SDS011;45951;45.824;8.824;2023-03-14T00:09:29;10.57;;;9.48;;
60078;SDS011;45951;45.824;8.824;2023-03-14T00:15:31;11.00;;;9.40;;
60078;SDS011;45951;45.824;8.824;2023-03-14T00:21:33;10.65;;;8.13;;
60078;SDS011;45951;45.824;8.824;2023-03-14T00:27:33;10.70;;;9.30;;
60078;SDS011;45951;45.824;8.824;2023-03-14T00:33:34;9.20;;;8.20;;
60078;SDS011;45951;45.824;8.824;2023-03-14T00:39:34;10.13;;;8.57;;
60078;SDS011;45951;45.824;8.824;2023-03-14T00:45:34;10.95;;;9.85;;
60078;SDS011;45951;45.824;8.824;2023-03-14T00:51:35;13.60;;;10.65;;
60078;SDS011;45951;45.824;8.824;2023-03-14T00:57:35;12.73;;;11.30;;
60078;SDS011;45951;45.824;8.824;2023-03-14T01:03:35;17.10;;;13.70;;
60078;SDS011;45951;45.824;8.824;2023-03-14T01:09:36;16.98;;;13.25;;
60078;SDS011;45951;45.824;8.824;2023-03-14T01:15:37;19.40;;;15.93;;
60078;SDS011;45951;45.824;8.824;2023-03-14T01:21:38;19.40;;;15.80;;
60078;SDS011;45951;45.824;8.824;2023-03-14T01:27:38;18.25;;;14.65;;
60078;SDS011;45951;45.824;8.824;2023-03-14T01:33:39;20.50;;;14.45;;
60078;SDS011;45951;45.824;8.824;2023-03-14T01:39:40;19.88;;;13.73;;
60078;SDS011;45951;45.824;8.824;2023-03-14T01:52:13;18.77;;;14.80;;
60078;SDS011;45951;45.824;8.824;2023-03-14T01:58:15;20.30;;;16.40;;
60078;SDS011;45951;45.824;8.824;2023-03-14T02:04:16;18.88;;;14.48;;
60078;SDS011;45951;45.824;8.824;2023-03-14T02:10:18;20.05;;;14.88;;
60078;SDS011;45951;45.824;8.824;2023-03-14T02:16:21;21.45;;;15.55;;
60078;SDS011;45951;45.824;8.824;2023-03-14T02:22:22;20.98;;;14.95;;
60078;SDS011;45951;45.824;8.824;2023-03-14T02:28:22;22.63;;;14.95;;
60078;SDS011;45951;45.824;8.824;2023-03-14T02:34:22;13.80;;;11.23;;
60078;SDS011;45951;45.824;8.824;2023-03-14T02:40:23;13.45;;;8.70;;
60078;SDS011;45951;45.824;8.824;2023-03-14T02:46:24;11.20;;;6.88;;
60078;SDS011;45951;45.824;8.824;2023-03-14T02:52:24;2.00;;;1.37;;
60078;SDS011;45951;45.824;8.824;2023-03-14T02:58:24;1.60;;;0.93;;
60078;SDS011;45951;45.824;8.824;2023-03-14T03:04:25;0.50;;;0.50;;
60078;SDS011;45951;45.824;8.824;2023-03-14T03:10:25;0.85;;;0.70;;
60078;SDS011;45951;45.824;8.824;2023-03-14T03:16:26;1.90;;;1.25;;
60078;SDS011;45951;45.824;8.824;2023-03-14T03:22:26;2.20;;;1.25;;
60078;SDS011;45951;45.824;8.824;2023-03-14T03:28:27;1.58;;;0.60;;
60078;SDS011;45951;45.824;8.824;2023-03-14T03:34:27;0.93;;;0.60;;
60078;SDS011;45951;45.824;8.824;2023-03-14T03:40:28;0.55;;;0.50;;
60078;SDS011;45951;45.824;8.824;2023-03-14T03:46:28;0.82;;;0.47;;
60078;SDS011;45951;45.824;8.824;2023-03-14T03:52:28;0.55;;;0.50;;
60078;SDS011;45951;45.824;8.824;2023-03-14T03:58:29;1.02;;;0.55;;
60078;SDS011;45951;45.824;8.824;2023-03-14T04:04:29;0.40;;;0.40;;
60078;SDS011;45951;45.824;8.824;2023-03-14T04:10:29;0.75;;;0.60;;
60078;SDS011;45951;45.824;8.824;2023-03-14T04:16:29;1.67;;;0.85;;
60078;SDS011;45951;45.824;8.824;2023-03-14T04:22:31;3.38;;;0.98;;
60078;SDS011;45951;45.824;8.824;2023-03-14T04:28:31;1.38;;;0.95;;
60078;SDS011;45951;45.824;8.824;2023-03-14T04:34:32;1.10;;;0.85;;
60078;SDS011;45951;45.824;8.824;2023-03-14T04:40:32;0.43;;;0.43;;
60078;SDS011;45951;45.824;8.824;2023-03-14T04:46:32;0.82;;;0.52;;
60078;SDS011;45951;45.824;8.824;2023-03-14T04:52:33;0.82;;;0.50;;
60078;SDS011;45951;45.824;8.824;2023-03-14T04:58:33;0.50;;;0.50;;
60078;SDS011;45951;45.824;8.824;2023-03-14T05:04:33;0.90;;;0.70;;
60078;SDS011;45951;45.824;8.824;2023-03-14T05:10:34;0.60;;;0.55;;
60078;SDS011;45951;45.824;8.824;2023-03-14T05:16:34;0.70;;;0.70;;
60078;SDS011;45951;45.824;8.824;2023-03-14T05:22:34;1.17;;;1.08;;
60078;SDS011;45951;45.824;8.824;2023-03-14T05:28:35;0.73;;;0.70;;
60078;SDS011;45951;45.824;8.824;2023-03-14T05:34:35;0.75;;;0.70;;
60078;SDS011;45951;45.824;8.824;2023-03-14T05:40:35;1.17;;;0.77;;
60078;SDS011;45951;45.824;8.824;2023-03-14T05:46:36;0.73;;;0.70;;
60078;SDS011;45951;45.824;8.824;2023-03-14T05:52:36;0.60;;;0.60;;
60078;SDS011;45951;45.824;8.824;2023-03-14T05:58:37;1.90;;;0.73;;
60078;SDS011;45951;45.824;8.824;2023-03-14T06:04:38;2.05;;;1.20;;
60078;SDS011;45951;45.824;8.824;2023-03-14T06:10:38;0.80;;;0.80;;
60078;SDS011;45951;45.824;8.824;2023-03-14T06:16:39;0.70;;;0.70;;
60078;SDS011;45951;45.824;8.824;2023-03-14T06:22:39;0.80;;;0.75;;
60078;SDS011;45951;45.824;8.824;2023-03-14T06:28:40;2.63;;;1.20;;
60078;SDS011;45951;45.824;8.824;2023-03-14T06:34:40;2.38;;;1.70;;
60078;SDS011;45951;45.824;8.824;2023-03-14T06:40:40;1.52;;;1.23;;
60078;SDS011;45951;45.824;8.824;2023-03-14T06:46:41;1.63;;;1.45;;
60078;SDS011;45951;45.824;8.824;2023-03-14T06:52:41;2.05;;;1.60;;
60078;SDS011;45951;45.824;8.824;2023-03-14T06:58:47;7.65;;;3.83;;
60078;SDS011;45951;45.824;8.824;2023-03-14T07:04:47;5.05;;;2.70;;
60078;SDS011;45951;45.824;8.824;2023-03-14T07:10:48;7.15;;;3.00;;
60078;SDS011;45951;45.824;8.824;2023-03-14T07:16:48;5.53;;;2.80;;
60078;SDS011;45951;45.824;8.824;2023-03-14T07:22:48;5.20;;;2.90;;
60078;SDS011;45951;45.824;8.824;2023-03-14T07:28:49;7.57;;;3.78;;
60078;SDS011;45951;45.824;8.824;2023-03-14T07:34:49;8.10;;;4.03;;
60078;SDS011;45951;45.824;8.824;2023-03-14T07:40:50;7.63;;;4.13;;
60078;SDS011;45951;45.824;8.824;2023-03-14T07:46:50;6.45;;;4.00;;
60078;SDS011;45951;45.824;8.824;2023-03-14T07:52:51;7.95;;;3.10;;
60078;SDS011;45951;45.824;8.824;2023-03-14T07:58:51;98.03;;;16.30;;
60078;SDS011;45951;45.824;8.824;2023-03-14T08:04:51;16.00;;;4.95;;
60078;SDS011;45951;45.824;8.824;2023-03-14T08:10:52;15.10;;;3.97;;
60078;SDS011;45951;45.824;8.824;2023-03-14T08:16:52;22.50;;;5.03;;
60078;SDS011;45951;45.824;8.824;2023-03-14T08:22:53;2.88;;;1.70;;
60078;SDS011;45951;45.824;8.824;2023-03-14T08:28:55;63.28;;;13.45;;
60078;SDS011;45951;45.824;8.824;2023-03-14T08:34:56;14.70;;;5.47;;
60078;SDS011;45951;45.824;8.824;2023-03-14T08:40:57;36.22;;;14.77;;
60078;SDS011;45951;45.824;8.824;2023-03-14T08:46:58;10.80;;;5.47;;
60078;SDS011;45951;45.824;8.824;2023-03-14T08:52:58;3.03;;;1.90;;
60078;SDS011;45951;45.824;8.824;2023-03-14T08:58:59;9.18;;;3.03;;
60078;SDS011;45951;45.824;8.824;2023-03-14T09:05:00;13.18;;;3.25;;
60078;SDS011;45951;45.824;8.824;2023-03-14T09:11:00;6.63;;;3.78;;
60078;SDS011;45951;45.824;8.824;2023-03-14T09:17:00;25.20;;;5.68;;
60078;SDS011;45951;45.824;8.824;2023-03-14T09:23:01;9.60;;;2.63;;
60078;SDS011;45951;45.824;8.824;2023-03-14T09:29:01;4.05;;;2.10;;
60078;SDS011;45951;45.824;8.824;2023-03-14T09:35:01;5.60;;;2.70;;
60078;SDS011;45951;45.824;8.824;2023-03-14T09:41:02;10.50;;;3.00;;
60078;SDS011;45951;45.824;8.824;2023-03-14T09:47:11;26.80;;;5.47;;
60078;SDS011;45951;45.824;8.824;2023-03-14T09:53:14;23.45;;;4.78;;
60078;SDS011;45951;45.824;8.824;2023-03-14T09:59:16;10.38;;;2.83;;
60078;SDS011;45951;45.824;8.824;2023-03-14T10:05:19;68.80;;;9.60;;
60078;SDS011;45951;45.824;8.824;2023-03-14T10:11:21;2.45;;;1.77;;
60078;SDS011;45951;45.824;8.824;2023-03-14T10:17:21;5.22;;;2.85;;
60078;SDS011;45951;45.824;8.824;2023-03-14T10:23:23;3.42;;;1.75;;
60078;SDS011;45951;45.824;8.824;2023-03-14T10:29:27;57.60;;;6.60;;
60078;SDS011;45951;45.824;8.824;2023-03-14T10:35:27;437.45;;;45.22;;
60078;SDS011;45951;45.824;8.824;2023-03-14T10:41:30;172.70;;;16.17;;
60078;SDS011;45951;45.824;8.824;2023-03-14T10:47:31;0.80;;;0.80;;
60078;SDS011;45951;45.824;8.824;2023-03-14T10:53:39;14.50;;;2.65;;
60078;SDS011;45951;45.824;8.824;2023-03-14T10:59:41;22.85;;;3.40;;
60078;SDS011;45951;45.824;8.824;2023-03-14T11:05:44;12.18;;;2.13;;
60078;SDS011;45951;45.824;8.824;2023-03-14T11:11:49;2.60;;;1.15;;
60078;SDS011;45951;45.824;8.824;2023-03-14T11:17:59;3.63;;;1.33;;
60078;SDS011;45951;45.824;8.824;2023-03-14T11:36:41;8.38;;;2.75;;
60078;SDS011;45951;45.824;8.824;2023-03-14T11:42:48;6.88;;;2.70;;
60078;SDS011;45951;45.824;8.824;2023-03-14T11:55:09;3.67;;;2.20;;
60078;SDS011;45951;45.824;8.824;2023-03-14T12:01:12;3.88;;;2.30;;
60078;SDS011;45951;45.824;8.824;2023-03-14T12:07:19;5.88;;;3.72;;
60078;SDS011;45951;45.824;8.824;2023-03-14T12:13:21;5.18;;;2.95;;
60078;SDS011;45951;45.824;8.824;2023-03-14T12:37:33;6.97;;;4.20;;
60078;SDS011;45951;45.824;8.824;2023-03-14T12:43:35;12.73;;;4.75;;
60078;SDS011;45951;45.824;8.824;2023-03-14T12:49:37;6.53;;;3.80;;
60078;SDS011;45951;45.824;8.824;2023-03-14T12:55:44;5.15;;;3.53;;
60078;SDS011;45951;45.824;8.824;2023-03-14T13:02:00;5.85;;;3.97;;
60078;SDS011;45951;45.824;8.824;2023-03-14T13:08:02;5.82;;;4.00;;
60078;SDS011;45951;45.824;8.824;2023-03-14T13:14:07;6.75;;;4.28;;
60078;SDS011;45951;45.824;8.824;2023-03-14T13:20:13;35.10;;;7.03;;
60078;SDS011;45951;45.824;8.824;2023-03-14T13:26:21;26.40;;;5.45;;
60078;SDS011;45951;45.824;8.824;2023-03-14T13:32:22;6.90;;;4.03;;
60078;SDS011;45951;45.824;8.824;2023-03-14T13:38:28;6.78;;;4.03;;
60078;SDS011;45951;45.824;8.824;2023-03-14T13:44:30;11.05;;;5.10;;
60078;SDS011;45951;45.824;8.824;2023-03-14T13:50:32;14.15;;;7.53;;
60078;SDS011;45951;45.824;8.824;2023-03-14T13:56:33;6.40;;;4.40;;
60078;SDS011;45951;45.824;8.824;2023-03-14T14:02:33;6.73;;;3.70;;
60078;SDS011;45951;45.824;8.824;2023-03-14T14:08:39;5.40;;;3.60;;
60078;SDS011;45951;45.824;8.824;2023-03-14T14:14:41;15.85;;;4.78;;
60078;SDS011;45951;45.824;8.824;2023-03-14T14:20:45;151.77;;;18.75;;
60078;SDS011;45951;45.824;8.824;2023-03-14T14:26:54;8.38;;;4.07;;
60078;SDS011;45951;45.824;8.824;2023-03-14T14:33:09;6.90;;;3.60;;
60078;SDS011;45951;45.824;8.824;2023-03-14T14:39:15;6.25;;;3.60;;
60078;SDS011;45951;45.824;8.824;2023-03-14T14:45:19;7.72;;;4.03;;
60078;SDS011;45951;45.824;8.824;2023-03-14T14:51:25;7.05;;;4.15;;
60078;SDS011;45951;45.824;8.824;2023-03-14T14:57:37;10.40;;;3.70;;
60078;SDS011;45951;45.824;8.824;2023-03-14T15:03:41;6.72;;;4.10;;
60078;SDS011;45951;45.824;8.824;2023-03-14T15:09:42;5.97;;;3.50;;
60078;SDS011;45951;45.824;8.824;2023-03-14T15:15:43;15.82;;;6.38;;
60078;SDS011;45951;45.824;8.824;2023-03-14T15:21:43;10.98;;;5.40;;
60078;SDS011;45951;45.824;8.824;2023-03-14T15:27:43;4.88;;;3.17;;
60078;SDS011;45951;45.824;8.824;2023-03-14T15:33:44;5.85;;;3.08;;
60078;SDS011;45951;45.824;8.824;2023-03-14T15:39:45;7.18;;;3.00;;
60078;SDS011;45951;45.824;8.824;2023-03-14T15:45:46;13.27;;;5.10;;
60078;SDS011;45951;45.824;8.824;2023-03-14T15:51:46;7.97;;;3.40;;
60078;SDS011;45951;45.824;8.824;2023-03-14T15:57:46;7.88;;;3.90;;
60078;SDS011;45951;45.824;8.824;2023-03-14T16:03:47;9.07;;;4.70;;
60078;SDS011;45951;45.824;8.824;2023-03-14T16:09:49;5.63;;;3.13;;
60078;SDS011;45951;45.824;8.824;2023-03-14T16:16:07;4.50;;;3.10;;
60078;SDS011;45951;45.824;8.824;2023-03-14T16:22:08;7.22;;;3.30;;
60078;SDS011;45951;45.824;8.824;2023-03-14T16:28:08;4.63;;;3.17;;
60078;SDS011;45951;45.824;8.824;2023-03-14T16:34:08;5.43;;;3.50;;
60078;SDS011;45951;45.824;8.824;2023-03-14T16:40:09;6.30;;;3.90;;
60078;SDS011;45951;45.824;8.824;2023-03-14T16:46:11;6.45;;;3.60;;
60078;SDS011;45951;45.824;8.824;2023-03-14T16:52:16;6.60;;;3.70;;
60078;SDS011;45951;45.824;8.824;2023-03-14T16:58:16;5.30;;;3.50;;
60078;SDS011;45951;45.824;8.824;2023-03-14T17:04:17;4.90;;;2.53;;
60078;SDS011;45951;45.824;8.824;2023-03-14T17:10:17;4.22;;;2.58;;
60078;SDS011;45951;45.824;8.824;2023-03-14T17:16:17;3.87;;;1.73;;
60078;SDS011;45951;45.824;8.824;2023-03-14T17:22:18;3.30;;;1.50;;
60078;SDS011;45951;45.824;8.824;2023-03-14T17:28:19;3.60;;;1.93;;
60078;SDS011;45951;45.824;8.824;2023-03-14T17:34:21;2.20;;;1.48;;
60078;SDS011;45951;45.824;8.824;2023-03-14T17:40:21;4.43;;;1.63;;
60078;SDS011;45951;45.824;8.824;2023-03-14T17:46:21;1.77;;;1.17;;
60078;SDS011;45951;45.824;8.824;2023-03-14T17:52:22;1.77;;;1.10;;
60078;SDS011;45951;45.824;8.824;2023-03-14T17:58:22;2.28;;;1.10;;
60078;SDS011;45951;45.824;8.824;2023-03-14T18:04:23;2.53;;;0.98;;
60078;SDS011;45951;45.824;8.824;2023-03-14T18:10:23;2.43;;;1.03;;
60078;SDS011;45951;45.824;8.824;2023-03-14T18:16:24;1.27;;;0.93;;
60078;SDS011;45951;45.824;8.824;2023-03-14T18:22:24;1.15;;;0.60;;
60078;SDS011;45951;45.824;8.824;2023-03-14T18:28:24;1.33;;;0.70;;
60078;SDS011;45951;45.824;8.824;2023-03-14T18:34:25;1.33;;;0.97;;
60078;SDS011;45951;45.824;8.824;2023-03-14T18:40:25;1.25;;;0.98;;
60078;SDS011;45951;45.824;8.824;2023-03-14T18:46:25;3.15;;;1.17;;
60078;SDS011;45951;45.824;8.824;2023-03-14T18:52:26;3.30;;;1.30;;
60078;SDS011;45951;45.824;8.824;2023-03-14T18:58:27;1.75;;;1.05;;
60078;SDS011;45951;45.824;8.824;2023-03-14T19:04:28;1.63;;;0.90;;
60078;SDS011;45951;45.824;8.824;2023-03-14T19:10:28;2.00;;;1.20;;
60078;SDS011;45951;45.824;8.824;2023-03-14T19:16:29;1.55;;;0.85;;
60078;SDS011;45951;45.824;8.824;2023-03-14T19:22:29;5.85;;;1.42;;
60078;SDS011;45951;45.824;8.824;2023-03-14T19:28:31;2.97;;;1.60;;
60078;SDS011;45951;45.824;8.824;2023-03-14T19:34:32;1.33;;;0.80;;
60078;SDS011;45951;45.824;8.824;2023-03-14T19:40:32;1.85;;;0.95;;
60078;SDS011;45951;45.824;8.824;2023-03-14T19:46:32;1.20;;;0.70;;
60078;SDS011;45951;45.824;8.824;2023-03-14T19:52:34;1.67;;;0.75;;
60078;SDS011;45951;45.824;8.824;2023-03-14T19:58:37;1.90;;;0.52;;
60078;SDS011;45951;45.824;8.824;2023-03-14T20:04:38;1.23;;;0.50;;
60078;SDS011;45951;45.824;8.824;2023-03-14T20:10:38;0.40;;;0.40;;
60078;SDS011;45951;45.824;8.824;2023-03-14T20:16:39;0.40;;;0.40;;
60078;SDS011;45951;45.824;8.824;2023-03-14T20:22:40;1.40;;;0.63;;
60078;SDS011;45951;45.824;8.824;2023-03-14T20:28:40;0.73;;;0.38;;
60078;SDS011;45951;45.824;8.824;2023-03-14T20:34:43;0.32;;;0.32;;
60078;SDS011;45951;45.824;8.824;2023-03-14T20:40:46;0.38;;;0.38;;
60078;SDS011;45951;45.824;8.824;2023-03-14T20:46:47;0.90;;;0.50;;
60078;SDS011;45951;45.824;8.824;2023-03-14T20:52:47;0.40;;;0.40;;
60078;SDS011;45951;45.824;8.824;2023-03-14T20:58:47;0.30;;;0.30;;
60078;SDS011;45951;45.824;8.824;2023-03-14T21:04:48;0.38;;;0.32;;
60078;SDS011;45951;45.824;8.824;2023-03-14T21:10:49;2.67;;;1.00;;
60078;SDS011;45951;45.824;8.824;2023-03-14T21:16:50;0.40;;;0.40;;
60078;SDS011;45951;45.824;8.824;2023-03-14T21:22:58;0.63;;;0.55;;
60078;SDS011;45951;45.824;8.824;2023-03-14T21:28:58;0.63;;;0.40;;
60078;SDS011;45951;45.824;8.824;2023-03-14T21:35:03;0.30;;;0.30;;
60078;SDS011;45951;45.824;8.824;2023-03-14T21:41:03;0.40;;;0.40;;
60078;SDS011;45951;45.824;8.824;2023-03-14T21:47:06;0.65;;;0.50;;
60078;SDS011;45951;45.824;8.824;2023-03-14T21:53:07;1.02;;;0.63;;
60078;SDS011;45951;45.824;8.824;2023-03-14T21:59:07;0.30;;;0.30;;
60078;SDS011;45951;45.824;8.824;2023-03-14T22:05:12;0.30;;;0.30;;
60078;SDS011;45951;45.824;8.824;2023-03-14T22:11:14;0.35;;;0.32;;
60078;SDS011;45951;45.824;8.824;2023-03-14T22:17:14;0.40;;;0.40;;
60078;SDS011;45951;45.824;8.824;2023-03-14T22:23:15;1.65;;;0.40;;
60078;SDS011;45951;45.824;8.824;2023-03-14T22:29:15;0.40;;;0.33;;
60078;SDS011;45951;45.824;8.824;2023-03-14T22:35:16;0.65;;;0.45;;
60078;SDS011;45951;45.824;8.824;2023-03-14T22:41:17;0.40;;;0.40;;
60078;SDS011;45951;45.824;8.824;2023-03-14T22:47:17;0.20;;;0.20;;
60078;SDS011;45951;45.824;8.824;2023-03-14T22:53:17;1.10;;;0.50;;
60078;SDS011;45951;45.824;8.824;2023-03-14T22:59:18;0.25;;;0.25;;
60078;SDS011;45951;45.824;8.824;2023-03-14T23:05:18;0.20;;;0.20;;
60078;SDS011;45951;45.824;8.824;2023-03-14T23:11:18;0.53;;;0.53;;
60078;SDS011;45951;45.824;8.824;2023-03-14T23:17:19;0.38;;;0.38;;
60078;SDS011;45951;45.824;8.824;2023-03-14T23:23:19;0.40;;;0.40;;
60078;SDS011;45951;45.824;8.824;2023-03-14T23:29:19;1.33;;;0.50;;
60078;SDS011;45951;45.824;8.824;2023-03-14T23:35:20;0.20;;;0.20;;
60078;SDS011;45951;45.824;8.824;2023-03-14T23:41:20;0.95;;;0.60;;
60078;SDS011;45951;45.824;8.824;2023-03-14T23:47:20;0.60;;;0.40;;
60078;SDS011;45951;45.824;8.824;2023-03-14T23:53:21;0.30;;;0.30;;
60078;SDS011;45951;45.824;8.824;2023-03-14T23:59:22;0.47;;;0.32;;
